Time;durP1;ratioP1;P1;durP2;ratioP2;P2;SDS_P1;SDS_P2;PMS_P1;PMS_P2;Temp;Humidity;BMP_temperature;BMP_pressure;BME280_temperature;BME280_humidity;BME280_pressure;Samples;Min_cycle;Max_cycle;Signal;HPM_P1;HPM_P2
2023/05/26 00:01:18;;;;;;;;;;;;;;;;;;5034249;28;19913;-79
2023/05/26 00:03:48;;;;;;;;;;;;;;;;;;5032943;28;20418;-81
2023/05/26 00:06:14;;;;;;;;;;;;;;;;;;5030087;28;19988;-78
2023/05/26 00:08:39;;;;;;;;;;;;;;;;;;5035790;28;20007;-80
2023/05/26 00:11:05;;;;;;;;;;;;;;;;;;5035575;28;19913;-80
2023/05/26 00:13:30;;;;;;;;;;;;;;;;;;5035506;28;20185;-81
2023/05/26 00:15:56;;;;;;;;;;;;;;;;;;5035397;28;19919;-80
2023/05/26 00:18:21;;;;;;;;;;;;;;;;;;5017935;28;20331;-79
2023/05/26 00:20:46;;;;;;;;;;;;;;;;;;5035140;28;19920;-78
2023/05/26 00:23:12;;;;;;;;;;;;;;;;;;5034094;28;19952;-82
2023/05/26 00:25:37;;;;;;;;;;;;;;;;;;5033029;28;19913;-83
2023/05/26 00:28:02;;;;;;;;;;;;;;;;;;5034110;28;19917;-80
2023/05/26 00:30:28;;;;;;;;;;;;;;;;;;5034628;28;20280;-79
2023/05/26 00:32:53;;;;;;;;;;;;;;;;;;5035011;28;19955;-81
2023/05/26 00:35:19;;;;;;;;;;;;;;;;;;5033879;28;19917;-81
2023/05/26 00:37:44;;;;;;;;;;;;;;;;;;5035010;28;20380;-84
2023/05/26 00:40:10;;;;;;;;;;;;;;;;;;5030069;28;19921;-82
2023/05/26 00:42:35;;;;;;;;;;;;;;;;;;5034788;28;19913;-81
2023/05/26 00:45:01;;;;;;;;;;;;;;;;;;5017360;28;19917;-83
2023/05/26 00:47:26;;;;;;;;;;;;;;;;;;5032474;28;20003;-83
2023/05/26 00:49:51;;;;;;;;;;;;;;;;;;5034294;28;19913;-79
2023/05/26 00:52:17;;;;;;;;;;;;;;;;;;5034243;28;19945;-83
2023/05/26 00:54:46;;;;;;;;;;;;;;;;;;5034456;28;19917;-80
2023/05/26 00:57:11;;;;;;;;;;;;;;;;;;5032035;28;19924;-84
2023/05/26 00:59:36;;;;;;;;;;;;;;;;;;5016267;28;19996;-82
2023/05/26 01:02:05;;;;;;;;;;;;;;;;;;5030572;28;19914;-82
2023/05/26 01:04:30;;;;;;;;;;;;;;;;;;5054140;28;19913;-81
2023/05/26 01:06:56;;;;;;;;;;;;;;;;;;5032947;28;20257;-83
2023/05/26 01:09:21;;;;;;;;;;;;;;;;;;5033816;28;19917;-81
2023/05/26 01:11:46;;;;;;;;;;;;;;;;;;5049171;28;19920;-80
2023/05/26 01:14:12;;;;;;;;;;;;;;;;;;5032913;28;20003;-82
2023/05/26 01:16:39;;;;;;;;;;;;;;;;;;5034322;28;19917;-81
2023/05/26 01:19:06;;;;;;;;;;;;;;;;;;5032880;28;20334;-82
2023/05/26 01:21:32;;;;;;;;;;;;;;;;;;5049193;28;19913;-82
2023/05/26 01:23:59;;;;;;;;;;;;;;;;;;5049310;28;19928;-81
2023/05/26 01:26:25;;;;;;;;;;;;;;;;;;5046337;28;19913;-80
2023/05/26 01:28:52;;;;;;;;;;;;;;;;;;5033805;28;19913;-78
2023/05/26 01:31:18;;;;;;;;;;;;;;;;;;5032243;28;20343;-82
2023/05/26 01:33:43;;;;;;;;;;;;;;;;;;5032561;28;19917;-82
2023/05/26 01:36:09;;;;;;;;;;;;;;;;;;5032513;28;19948;-81
2023/05/26 01:38:35;;;;;;;;;;;;;;;;;;5016265;28;19913;-81
2023/05/26 01:41:00;;;;;;;;;;;;;;;;;;5033541;28;19925;-82
2023/05/26 01:43:31;;;;;;;;;;;;;;;;;;5024754;28;20380;-82
2023/05/26 01:45:57;;;;;;;;;;;;;;;;;;5029141;28;19914;-79
2023/05/26 01:48:23;;;;;;;;;;;;;;;;;;5030507;28;19913;-79
2023/05/26 01:50:48;;;;;;;;;;;;;;;;;;5051469;28;19913;-81
2023/05/26 01:53:13;;;;;;;;;;;;;;;;;;5065170;28;19951;-81
2023/05/26 01:55:40;;;;;;;;;;;;;;;;;;5033045;28;19924;-79
2023/05/26 01:58:09;;;;;;;;;;;;;;;;;;5032690;28;19913;-81
2023/05/26 02:00:36;;;;;;;;;;;;;;;;;;5032168;28;19913;-81
2023/05/26 02:03:05;;;;;;;;;;;;;;;;;;5032210;28;19909;-80
2023/05/26 02:05:30;;;;;;;;;;;;;;;;;;5016107;28;19998;-81
2023/05/26 02:07:56;;;;;;;;;;;;;;;;;;5016188;28;19913;-81
2023/05/26 02:10:21;;;;;;;;;;;;;;;;;;5032266;28;19909;-79
2023/05/26 02:12:47;;;;;;;;;;;;;;;;;;5016741;28;19967;-80
2023/05/26 02:15:12;;;;;;;;;;;;;;;;;;5030047;28;19917;-82
2023/05/26 02:17:40;;;;;;;;;;;;;;;;;;5035607;28;19913;-79
2023/05/26 02:20:08;;;;;;;;;;;;;;;;;;5034944;28;19920;-79
2023/05/26 02:22:33;;;;;;;;;;;;;;;;;;5037276;28;19920;-78
2023/05/26 02:24:58;;;;;;;;;;;;;;;;;;5048980;28;19914;-82
2023/05/26 02:27:24;;;;;;;;;;;;;;;;;;5052953;28;19932;-79
2023/05/26 02:29:50;;;;;;;;;;;;;;;;;;5048971;28;19913;-79
2023/05/26 02:32:15;;;;;;;;;;;;;;;;;;5076022;28;19958;-80
2023/05/26 02:34:41;;;;;;;;;;;;;;;;;;5083033;28;19980;-78
2023/05/26 02:37:06;;;;;;;;;;;;;;;;;;5051787;28;19914;-79
2023/05/26 02:39:31;;;;;;;;;;;;;;;;;;5046312;28;19992;-80
2023/05/26 02:41:58;;;;;;;;;;;;;;;;;;5055083;28;19920;-81
2023/05/26 02:44:24;;;;;;;;;;;;;;;;;;5066793;28;19913;-81
2023/05/26 02:46:49;;;;;;;;;;;;;;;;;;5034154;28;19958;-81
2023/05/26 02:49:16;;;;;;;;;;;;;;;;;;5033961;28;19921;-82
2023/05/26 02:51:43;;;;;;;;;;;;;;;;;;5048852;28;19917;-82
2023/05/26 02:54:09;;;;;;;;;;;;;;;;;;5033739;28;19919;-83
2023/05/26 02:56:34;;;;;;;;;;;;;;;;;;5033668;28;19955;-83
2023/05/26 02:59:00;;;;;;;;;;;;;;;;;;5033116;28;20333;-84
2023/05/26 03:01:25;;;;;;;;;;;;;;;;;;5028841;28;19939;-82
2023/05/26 03:03:50;;;;;;;;;;;;;;;;;;5030089;28;19952;-82
2023/05/26 03:06:16;;;;;;;;;;;;;;;;;;5032118;28;19909;-85
2023/05/26 03:08:42;;;;;;;;;;;;;;;;;;5031704;28;19914;-83
2023/05/26 03:11:07;;;;;;;;;;;;;;;;;;5034748;28;20415;-82
2023/05/26 03:13:33;;;;;;;;;;;;;;;;;;5035439;28;19914;-83
2023/05/26 03:15:58;;;;;;;;;;;;;;;;;;5036778;28;19939;-82
2023/05/26 03:18:24;;;;;;;;;;;;;;;;;;5035393;28;19915;-80
2023/05/26 03:20:49;;;;;;;;;;;;;;;;;;5032158;28;19921;-82
2023/05/26 03:23:14;;;;;;;;;;;;;;;;;;5019495;28;20023;-84
2023/05/26 03:25:40;;;;;;;;;;;;;;;;;;5036892;28;19917;-86
2023/05/26 03:28:05;;;;;;;;;;;;;;;;;;5037709;28;19915;-81
2023/05/26 03:30:31;;;;;;;;;;;;;;;;;;5043783;28;20004;-82
2023/05/26 03:32:56;;;;;;;;;;;;;;;;;;5039826;28;20347;-79
2023/05/26 03:35:22;;;;;;;;;;;;;;;;;;5036866;28;19924;-79
2023/05/26 03:37:49;;;;;;;;;;;;;;;;;;5034565;28;19936;-80
2023/05/26 03:40:14;;;;;;;;;;;;;;;;;;5052883;28;20301;-80
2023/05/26 03:42:40;;;;;;;;;;;;;;;;;;5065695;28;19928;-79
2023/05/26 03:45:05;;;;;;;;;;;;;;;;;;5022691;28;20384;-79
2023/05/26 03:47:31;;;;;;;;;;;;;;;;;;5036935;28;19924;-78
2023/05/26 03:49:56;;;;;;;;;;;;;;;;;;5035390;28;19917;-80
2023/05/26 03:52:22;;;;;;;;;;;;;;;;;;5068330;28;19945;-80
2023/05/26 03:54:47;;;;;;;;;;;;;;;;;;5068949;28;19967;-79
2023/05/26 03:57:13;;;;;;;;;;;;;;;;;;5072149;28;19962;-79
2023/05/26 03:59:38;;;;;;;;;;;;;;;;;;5064265;28;19913;-81
2023/05/26 04:02:04;;;;;;;;;;;;;;;;;;5083557;28;19944;-80
2023/05/26 04:04:29;;;;;;;;;;;;;;;;;;5064180;28;19920;-79
2023/05/26 04:06:56;;;;;;;;;;;;;;;;;;5002345;28;19917;-80
2023/05/26 04:09:21;;;;;;;;;;;;;;;;;;5062064;28;20299;-80
2023/05/26 04:11:46;;;;;;;;;;;;;;;;;;5035358;28;19913;-79
2023/05/26 04:14:12;;;;;;;;;;;;;;;;;;5034311;28;20296;-79
2023/05/26 04:16:37;;;;;;;;;;;;;;;;;;5035759;28;20650;-80
2023/05/26 04:19:03;;;;;;;;;;;;;;;;;;5034357;28;19948;-80
2023/05/26 04:21:28;;;;;;;;;;;;;;;;;;5017760;28;19920;-81
2023/05/26 04:23:56;;;;;;;;;;;;;;;;;;5035479;28;19921;-79
2023/05/26 04:26:24;;;;;;;;;;;;;;;;;;5030420;28;19917;-81
2023/05/26 04:29:06;;;;;;;;;;;;;;;;;;5053300;28;19913;-79
2023/05/26 04:32:08;;;;;;;;;;;;;;;;;;5018910;28;19914;-79
2023/05/26 04:34:57;;;;;;;;;;;;;;;;;;5047256;28;20001;-79
2023/05/26 04:37:33;;;;;;;;;;;;;;;;;;5047362;28;20027;-79
2023/05/26 04:39:58;;;;;;;;;;;;;;;;;;5027805;28;19917;-79
2023/05/26 04:42:24;;;;;;;;;;;;;;;;;;5034766;28;19963;-81
2023/05/26 04:44:49;;;;;;;;;;;;;;;;;;5035366;28;19913;-79
2023/05/26 04:47:16;;;;;;;;;;;;;;;;;;5053006;28;19913;-79
2023/05/26 04:49:42;;;;;;;;;;;;;;;;;;5041647;28;19966;-79
2023/05/26 04:52:08;;;;;;;;;;;;;;;;;;5039827;28;19980;-80
2023/05/26 04:54:34;;;;;;;;;;;;;;;;;;5034628;28;19928;-80
2023/05/26 04:57:00;;;;;;;;;;;;;;;;;;5016330;28;19963;-79
2023/05/26 04:59:42;;;;;;;;;;;;;;;;;;5034621;28;19923;-79
2023/05/26 05:02:08;;;;;;;;;;;;;;;;;;5018827;28;19913;-78
2023/05/26 05:04:47;;;;;;;;;;;;;;;;;;5034155;28;19917;-81
2023/05/26 05:07:13;;;;;;;;;;;;;;;;;;5035701;28;20442;-78
2023/05/26 05:09:38;;;;;;;;;;;;;;;;;;5018618;28;19956;-80
2023/05/26 05:12:03;;;;;;;;;;;;;;;;;;5034686;28;19913;-80
2023/05/26 05:14:29;;;;;;;;;;;;;;;;;;5030269;28;19918;-80
2023/05/26 05:16:55;;;;;;;;;;;;;;;;;;5015722;28;20012;-81
2023/05/26 05:19:21;;;;;;;;;;;;;;;;;;5017549;28;19949;-80
2023/05/26 05:21:54;;;;;;;;;;;;;;;;;;5058029;28;19936;-81
2023/05/26 05:24:19;;;;;;;;;;;;;;;;;;5067121;28;20044;-79
2023/05/26 05:26:45;;;;;;;;;;;;;;;;;;5067313;28;19920;-80
2023/05/26 05:29:11;;;;;;;;;;;;;;;;;;5066262;28;19913;-79
2023/05/26 05:31:45;;;;;;;;;;;;;;;;;;5051976;28;19927;-80
2023/05/26 05:34:11;;;;;;;;;;;;;;;;;;5048471;28;19952;-80
2023/05/26 05:36:36;;;;;;;;;;;;;;;;;;5063067;28;19971;-77
2023/05/26 05:39:02;;;;;;;;;;;;;;;;;;5033583;28;20284;-80
2023/05/26 05:41:28;;;;;;;;;;;;;;;;;;5039051;28;19921;-83
2023/05/26 05:43:59;;;;;;;;;;;;;;;;;;5021542;28;19913;-80
2023/05/26 05:46:26;;;;;;;;;;;;;;;;;;5067441;28;19913;-79
2023/05/26 05:48:59;;;;;;;;;;;;;;;;;;5050953;28;20287;-79
2023/05/26 05:51:28;;;;;;;;;;;;;;;;;;5067242;28;19913;-82
2023/05/26 05:53:54;;;;;;;;;;;;;;;;;;5050252;28;20299;-81
2023/05/26 05:56:20;;;;;;;;;;;;;;;;;;5051417;28;20400;-81
2023/05/26 05:58:46;;;;;;;;;;;;;;;;;;5068172;28;19920;-81
2023/05/26 06:01:12;;;;;;;;;;;;;;;;;;5034731;28;20327;-79
2023/05/26 06:03:37;;;;;;;;;;;;;;;;;;5060971;28;20336;-78
2023/05/26 06:06:03;;;;;;;;;;;;;;;;;;5033248;28;19919;-81
2023/05/26 06:08:28;;;;;;;;;;;;;;;;;;5016443;28;19921;-81
2023/05/26 06:10:54;;;;;;;;;;;;;;;;;;5033756;28;20407;-78
2023/05/26 06:13:21;;;;;;;;;;;;;;;;;;5034278;28;19917;-83
2023/05/26 06:15:46;;;;;;;;;;;;;;;;;;5016487;28;20296;-82
2023/05/26 06:18:12;;;;;;;;;;;;;;;;;;5032215;28;20169;-83
2023/05/26 06:20:38;;;;;;;;;;;;;;;;;;5030969;28;19913;-80
2023/05/26 06:23:03;;;;;;;;;;;;;;;;;;5032198;28;19914;-79
2023/05/26 06:25:29;;;;;;;;;;;;;;;;;;5032180;28;19913;-81
2023/05/26 06:27:58;;;;;;;;;;;;;;;;;;5033860;28;20347;-82
2023/05/26 06:30:24;;;;;;;;;;;;;;;;;;5032111;28;20077;-81
2023/05/26 06:32:57;;;;;;;;;;;;;;;;;;5032051;28;19917;-82
2023/05/26 06:35:22;;;;;;;;;;;;;;;;;;5029113;28;19924;-79
2023/05/26 06:37:48;;;;;;;;;;;;;;;;;;5045080;28;19913;-78
2023/05/26 06:40:13;;;;;;;;;;;;;;;;;;5050532;22;19925;-78
2023/05/26 06:42:39;;;;;;;;;;;;;;;;;;5025943;28;19922;-76
2023/05/26 06:45:04;;;;;;;;;;;;;;;;;;5023926;28;19914;-76
2023/05/26 06:47:30;;;;;;;;;;;;;;;;;;5027010;28;19920;-78
2023/05/26 06:50:08;;;;;;;;;;;;;;;;;;5057047;28;19913;-76
2023/05/26 06:52:36;;;;;;;;;;;;;;;;;;5025690;28;19913;-77
2023/05/26 06:55:03;;;;;;;;;;;;;;;;;;5040568;28;20320;-77
2023/05/26 06:57:31;;;;;;;;;;;;;;;;;;5042265;28;19953;-76
2023/05/26 06:59:57;;;;;;;;;;;;;;;;;;5041167;28;19913;-76
2023/05/26 07:02:23;;;;;;;;;;;;;;;;;;5008820;28;19944;-77
2023/05/26 07:04:54;;;;;;;;;;;;;;;;;;5023420;28;19914;-75
2023/05/26 07:07:20;;;;;;;;;;;;;;;;;;5036825;28;19940;-75
2023/05/26 07:09:45;;;;;;;;;;;;;;;;;;5007197;28;19917;-76
2023/05/26 07:12:13;;;;;;;;;;;;;;;;;;5040350;28;19988;-75
2023/05/26 07:14:48;;;;;;;;;;;;;;;;;;5043308;28;19917;-76
2023/05/26 07:17:22;;;;;;;;;;;;;;;;;;5024890;28;19917;-77
2023/05/26 07:19:48;;;;;;;;;;;;;;;;;;5040331;28;20392;-76
2023/05/26 07:22:14;;;;;;;;;;;;;;;;;;5023744;28;19919;-77
2023/05/26 07:24:58;;;;;;;;;;;;;;;;;;5033478;28;20009;-80
2023/05/26 07:27:31;;;;;;;;;;;;;;;;;;4988720;28;19920;-77
2023/05/26 07:29:56;;;;;;;;;;;;;;;;;;4999751;28;19918;-76
2023/05/26 07:32:22;;;;;;;;;;;;;;;;;;5012142;28;19928;-78
2023/05/26 07:34:47;;;;;;;;;;;;;;;;;;5006288;28;19944;-76
2023/05/26 07:37:13;;;;;;;;;;;;;;;;;;5040687;28;19913;-77
2023/05/26 07:39:39;;;;;;;;;;;;;;;;;;4991895;28;20075;-77
2023/05/26 07:42:04;;;;;;;;;;;;;;;;;;5031726;28;19914;-76
2023/05/26 07:44:30;;;;;;;;;;;;;;;;;;5014314;28;19914;-76
2023/05/26 07:46:55;;;;;;;;;;;;;;;;;;5014769;28;19913;-75
2023/05/26 07:49:21;;;;;;;;;;;;;;;;;;5017010;28;20268;-80
2023/05/26 07:51:47;;;;;;;;;;;;;;;;;;5032423;28;19964;-75
2023/05/26 07:54:12;;;;;;;;;;;;;;;;;;5016255;28;19920;-78
2023/05/26 07:56:41;;;;;;;;;;;;;;;;;;5026271;28;20000;-76
2023/05/26 07:59:07;;;;;;;;;;;;;;;;;;5035136;28;19913;-76
2023/05/26 08:01:33;;;;;;;;;;;;;;;;;;5002196;28;19913;-75
2023/05/26 08:03:58;;;;;;;;;;;;;;;;;;5017967;28;20267;-77
2023/05/26 08:06:24;;;;;;;;;;;;;;;;;;5018021;28;19917;-77
2023/05/26 08:08:50;;;;;;;;;;;;;;;;;;5018480;28;19925;-77
2023/05/26 08:11:15;;;;;;;;;;;;;;;;;;5001487;28;20050;-75
2023/05/26 08:13:41;;;;;;;;;;;;;;;;;;5015833;28;20308;-77
2023/05/26 08:16:06;;;;;;;;;;;;;;;;;;5017807;28;19982;-76
2023/05/26 08:18:35;;;;;;;;;;;;;;;;;;5001364;28;19913;-77
2023/05/26 08:21:03;;;;;;;;;;;;;;;;;;5017717;28;19913;-76
2023/05/26 08:23:29;;;;;;;;;;;;;;;;;;5017747;28;19913;-76
2023/05/26 08:25:59;;;;;;;;;;;;;;;;;;5003001;28;19920;-76
2023/05/26 08:28:24;;;;;;;;;;;;;;;;;;5035954;28;19913;-75
2023/05/26 08:30:50;;;;;;;;;;;;;;;;;;5000594;28;19913;-76
2023/05/26 08:33:16;;;;;;;;;;;;;;;;;;5008880;28;19914;-76
2023/05/26 08:35:41;;;;;;;;;;;;;;;;;;5005204;28;19928;-78
2023/05/26 08:38:07;;;;;;;;;;;;;;;;;;4997783;28;19921;-76
2023/05/26 08:40:33;;;;;;;;;;;;;;;;;;5012225;28;19968;-78
2023/05/26 08:43:00;;;;;;;;;;;;;;;;;;5033091;28;19917;-77
2023/05/26 08:45:26;;;;;;;;;;;;;;;;;;5000808;28;19921;-76
2023/05/26 08:47:51;;;;;;;;;;;;;;;;;;5033072;28;19913;-78
2023/05/26 08:50:17;;;;;;;;;;;;;;;;;;5016305;28;19971;-76
2023/05/26 08:52:43;;;;;;;;;;;;;;;;;;5017011;28;19936;-78
2023/05/26 08:55:08;;;;;;;;;;;;;;;;;;5017664;28;20327;-76
2023/05/26 08:57:34;;;;;;;;;;;;;;;;;;5033634;28;19915;-75
2023/05/26 09:00:00;;;;;;;;;;;;;;;;;;5017213;28;19943;-77
2023/05/26 09:02:25;;;;;;;;;;;;;;;;;;5016084;28;20016;-77
2023/05/26 09:04:51;;;;;;;;;;;;;;;;;;5016258;28;20281;-77
2023/05/26 09:07:20;;;;;;;;;;;;;;;;;;4999899;28;19956;-78
2023/05/26 09:09:46;;;;;;;;;;;;;;;;;;5016327;28;19917;-77
2023/05/26 09:12:15;;;;;;;;;;;;;;;;;;5033213;28;19971;-77
2023/05/26 09:14:40;;;;;;;;;;;;;;;;;;5016615;28;19960;-76
2023/05/26 09:17:06;;;;;;;;;;;;;;;;;;5000426;28;19960;-77
2023/05/26 09:19:32;;;;;;;;;;;;;;;;;;5031027;28;19913;-76
2023/05/26 09:21:57;;;;;;;;;;;;;;;;;;5023283;28;20056;-77
2023/05/26 09:24:23;;;;;;;;;;;;;;;;;;5023109;28;19917;-77
2023/05/26 09:26:49;;;;;;;;;;;;;;;;;;5028720;28;19913;-76
2023/05/26 09:29:15;;;;;;;;;;;;;;;;;;5028670;28;19913;-76
2023/05/26 09:31:40;;;;;;;;;;;;;;;;;;5031499;28;20055;-78
2023/05/26 09:34:06;;;;;;;;;;;;;;;;;;5032467;28;19960;-79
2023/05/26 09:36:31;;;;;;;;;;;;;;;;;;5033409;28;20055;-77
2023/05/26 09:38:57;;;;;;;;;;;;;;;;;;5033228;28;19913;-78
2023/05/26 09:41:22;;;;;;;;;;;;;;;;;;5032887;28;20303;-77
2023/05/26 09:43:48;;;;;;;;;;;;;;;;;;5031976;28;19913;-78
2023/05/26 09:46:17;;;;;;;;;;;;;;;;;;5033228;28;19936;-77
2023/05/26 09:48:42;;;;;;;;;;;;;;;;;;5032932;28;19996;-77
2023/05/26 09:51:08;;;;;;;;;;;;;;;;;;5013092;28;20015;-77
2023/05/26 09:53:33;;;;;;;;;;;;;;;;;;5030729;28;19920;-77
2023/05/26 09:56:01;;;;;;;;;;;;;;;;;;5031851;28;19960;-77
2023/05/26 09:58:27;;;;;;;;;;;;;;;;;;5015157;28;20376;-77
2023/05/26 10:00:53;;;;;;;;;;;;;;;;;;5015070;28;19913;-77
2023/05/26 10:03:18;;;;;;;;;;;;;;;;;;5031507;28;19913;-77
2023/05/26 10:05:47;;;;;;;;;;;;;;;;;;5033122;28;19917;-78
2023/05/26 10:08:12;;;;;;;;;;;;;;;;;;5004885;28;19921;-77
2023/05/26 10:10:38;;;;;;;;;;;;;;;;;;5009433;28;19913;-77
2023/05/26 10:13:05;;;;;;;;;;;;;;;;;;5027531;28;19913;-77
2023/05/26 10:15:30;;;;;;;;;;;;;;;;;;5020394;28;19923;-78
2023/05/26 10:17:58;;;;;;;;;;;;;;;;;;5014363;28;20346;-77
2023/05/26 10:20:24;;;;;;;;;;;;;;;;;;5030612;28;20000;-77
2023/05/26 10:22:49;;;;;;;;;;;;;;;;;;5019959;28;19952;-77
2023/05/26 10:25:15;;;;;;;;;;;;;;;;;;5031146;28;19913;-78
2023/05/26 10:27:41;;;;;;;;;;;;;;;;;;5032178;28;20051;-78
2023/05/26 10:30:08;;;;;;;;;;;;;;;;;;5014557;28;20004;-77
2023/05/26 10:32:34;;;;;;;;;;;;;;;;;;5031034;28;19916;-77
2023/05/26 10:34:59;;;;;;;;;;;;;;;;;;5014610;28;19917;-78
2023/05/26 10:37:25;;;;;;;;;;;;;;;;;;5030435;28;20277;-78
2023/05/26 10:39:51;;;;;;;;;;;;;;;;;;5026956;28;19999;-78
2023/05/26 10:42:17;;;;;;;;;;;;;;;;;;5014319;28;20031;-78
2023/05/26 10:44:42;;;;;;;;;;;;;;;;;;5030887;28;19913;-78
2023/05/26 10:47:07;;;;;;;;;;;;;;;;;;5030790;28;19963;-78
2023/05/26 10:49:33;;;;;;;;;;;;;;;;;;5014089;28;20020;-78
2023/05/26 10:51:59;;;;;;;;;;;;;;;;;;5030206;28;19920;-77
2023/05/26 10:54:27;;;;;;;;;;;;;;;;;;5028856;28;19917;-78
2023/05/26 10:56:53;;;;;;;;;;;;;;;;;;5014109;28;19988;-78
2023/05/26 10:59:21;;;;;;;;;;;;;;;;;;5031872;28;19955;-78
2023/05/26 11:01:51;;;;;;;;;;;;;;;;;;5030365;28;20023;-77
2023/05/26 11:04:17;;;;;;;;;;;;;;;;;;5014175;28;20020;-78
2023/05/26 11:06:42;;;;;;;;;;;;;;;;;;5014027;28;19956;-78
2023/05/26 11:09:08;;;;;;;;;;;;;;;;;;5030759;28;19913;-77
2023/05/26 11:11:38;;;;;;;;;;;;;;;;;;4984697;28;20388;-75
2023/05/26 11:14:04;;;;;;;;;;;;;;;;;;4983099;28;19917;-78
2023/05/26 11:16:30;;;;;;;;;;;;;;;;;;4996528;28;19949;-77
2023/05/26 11:18:56;;;;;;;;;;;;;;;;;;5022101;28;19944;-78
2023/05/26 11:21:21;;;;;;;;;;;;;;;;;;5013776;28;19913;-77
2023/05/26 11:23:47;;;;;;;;;;;;;;;;;;5031415;28;20307;-77
2023/05/26 11:26:12;;;;;;;;;;;;;;;;;;5013965;28;19913;-78
2023/05/26 11:28:38;;;;;;;;;;;;;;;;;;5014055;28;20303;-78
2023/05/26 11:31:05;;;;;;;;;;;;;;;;;;5015262;28;19913;-78
2023/05/26 11:33:31;;;;;;;;;;;;;;;;;;5034548;28;20020;-79
2023/05/26 11:36:03;;;;;;;;;;;;;;;;;;5018774;28;19920;-79
2023/05/26 11:38:29;;;;;;;;;;;;;;;;;;5018363;28;19913;-78
2023/05/26 11:40:54;;;;;;;;;;;;;;;;;;5034054;28;19996;-78
2023/05/26 11:43:20;;;;;;;;;;;;;;;;;;5012746;28;20000;-78
2023/05/26 11:45:45;;;;;;;;;;;;;;;;;;5017773;28;20295;-78
2023/05/26 11:48:11;;;;;;;;;;;;;;;;;;5017534;28;19913;-76
2023/05/26 11:50:36;;;;;;;;;;;;;;;;;;5033433;28;20414;-77
2023/05/26 11:53:02;;;;;;;;;;;;;;;;;;5017370;28;20331;-78
2023/05/26 11:55:27;;;;;;;;;;;;;;;;;;5033361;28;19979;-78
2023/05/26 11:57:53;;;;;;;;;;;;;;;;;;5035209;28;19920;-78
2023/05/26 12:00:19;;;;;;;;;;;;;;;;;;5031222;28;19913;-78
2023/05/26 12:02:47;;;;;;;;;;;;;;;;;;5017763;28;19963;-78
2023/05/26 12:05:15;;;;;;;;;;;;;;;;;;5034860;28;19998;-78
2023/05/26 12:07:41;;;;;;;;;;;;;;;;;;5017428;28;19913;-78
2023/05/26 12:10:07;;;;;;;;;;;;;;;;;;5000486;28;19983;-78
2023/05/26 12:12:33;;;;;;;;;;;;;;;;;;5000996;28;19916;-77
2023/05/26 12:14:58;;;;;;;;;;;;;;;;;;5017096;28;19918;-78
2023/05/26 12:17:24;;;;;;;;;;;;;;;;;;5009891;28;19936;-79
2023/05/26 12:19:49;;;;;;;;;;;;;;;;;;5007205;28;19944;-78
2023/05/26 12:22:15;;;;;;;;;;;;;;;;;;5046884;28;19913;-78
2023/05/26 12:24:40;;;;;;;;;;;;;;;;;;5018145;28;19924;-77
2023/05/26 12:27:06;;;;;;;;;;;;;;;;;;5034265;28;19913;-78
2023/05/26 12:29:32;;;;;;;;;;;;;;;;;;5022581;28;19913;-78
2023/05/26 12:31:57;;;;;;;;;;;;;;;;;;5032552;28;19952;-78
2023/05/26 12:34:23;;;;;;;;;;;;;;;;;;5048492;28;20167;-78
2023/05/26 12:36:49;;;;;;;;;;;;;;;;;;5013232;28;20000;-77
2023/05/26 12:39:14;;;;;;;;;;;;;;;;;;5025913;22;19913;-83
2023/05/26 12:41:40;;;;;;;;;;;;;;;;;;5034102;28;19971;-85
2023/05/26 12:44:06;;;;;;;;;;;;;;;;;;5039090;28;19913;-82
2023/05/26 12:46:31;;;;;;;;;;;;;;;;;;5049336;28;19917;-83
2023/05/26 12:48:57;;;;;;;;;;;;;;;;;;5048817;28;19935;-82
2023/05/26 12:51:22;;;;;;;;;;;;;;;;;;5042891;28;19956;-82
2023/05/26 12:53:48;;;;;;;;;;;;;;;;;;5022195;28;20020;-82
2023/05/26 12:56:13;;;;;;;;;;;;;;;;;;5041396;28;19980;-82
2023/05/26 12:58:41;;;;;;;;;;;;;;;;;;5038240;28;19909;-83
2023/05/26 13:01:08;;;;;;;;;;;;;;;;;;5039913;28;19937;-83
2023/05/26 13:03:33;;;;;;;;;;;;;;;;;;5023688;28;20023;-80
2023/05/26 13:05:58;;;;;;;;;;;;;;;;;;5033259;28;19925;-83
2023/05/26 13:08:24;;;;;;;;;;;;;;;;;;5035299;28;20376;-83
2023/05/26 13:10:50;;;;;;;;;;;;;;;;;;5028562;28;19913;-84
2023/05/26 13:13:15;;;;;;;;;;;;;;;;;;5029284;28;19985;-82
2023/05/26 13:15:41;;;;;;;;;;;;;;;;;;5023975;28;19962;-83
2023/05/26 13:18:06;;;;;;;;;;;;;;;;;;5033892;28;20376;-83
2023/05/26 13:20:32;;;;;;;;;;;;;;;;;;5034872;28;19913;-84
2023/05/26 13:22:57;;;;;;;;;;;;;;;;;;5034493;28;19920;-82
2023/05/26 13:25:22;;;;;;;;;;;;;;;;;;5034515;28;19912;-83
2023/05/26 13:27:48;;;;;;;;;;;;;;;;;;5034227;28;19914;-83
2023/05/26 13:30:14;;;;;;;;;;;;;;;;;;5034720;28;19913;-83
2023/05/26 13:32:40;;;;;;;;;;;;;;;;;;5032442;28;20516;-83
2023/05/26 13:35:06;;;;;;;;;;;;;;;;;;5033846;28;19944;-82
2023/05/26 13:37:31;;;;;;;;;;;;;;;;;;5033319;28;20295;-81
2023/05/26 13:39:57;;;;;;;;;;;;;;;;;;5036261;28;19913;-83
2023/05/26 13:42:22;;;;;;;;;;;;;;;;;;5033043;28;20003;-82
2023/05/26 13:44:47;;;;;;;;;;;;;;;;;;5032668;28;20307;-83
2023/05/26 13:47:13;;;;;;;;;;;;;;;;;;5035651;28;20304;-83
2023/05/26 13:49:38;;;;;;;;;;;;;;;;;;5036067;28;19921;-83
2023/05/26 13:52:04;;;;;;;;;;;;;;;;;;5028178;28;19914;-83
2023/05/26 13:54:29;;;;;;;;;;;;;;;;;;5036340;28;19917;-81
2023/05/26 13:56:55;;;;;;;;;;;;;;;;;;5035053;28;19952;-83
2023/05/26 13:59:20;;;;;;;;;;;;;;;;;;5034842;28;19916;-83
2023/05/26 14:01:46;;;;;;;;;;;;;;;;;;5034455;28;19913;-83
2023/05/26 14:04:11;;;;;;;;;;;;;;;;;;5020073;28;19913;-82
2023/05/26 14:06:37;;;;;;;;;;;;;;;;;;5020891;28;20349;-83
2023/05/26 14:09:03;;;;;;;;;;;;;;;;;;5035620;28;20321;-83
2023/05/26 14:11:29;;;;;;;;;;;;;;;;;;5032726;28;19913;-83
2023/05/26 14:13:54;;;;;;;;;;;;;;;;;;5019312;28;19991;-83
2023/05/26 14:16:20;;;;;;;;;;;;;;;;;;5036145;28;19952;-82
2023/05/26 14:18:51;;;;;;;;;;;;;;;;;;5051045;28;19913;-82
2023/05/26 14:21:19;;;;;;;;;;;;;;;;;;5038966;28;19908;-84
2023/05/26 14:23:45;;;;;;;;;;;;;;;;;;5044934;28;19910;-83
2023/05/26 14:26:10;;;;;;;;;;;;;;;;;;5051935;28;19923;-83
2023/05/26 14:28:36;;;;;;;;;;;;;;;;;;5029004;28;19956;-81
2023/05/26 14:31:01;;;;;;;;;;;;;;;;;;5037027;28;20373;-83
2023/05/26 14:33:27;;;;;;;;;;;;;;;;;;5035600;28;19917;-82
2023/05/26 14:35:54;;;;;;;;;;;;;;;;;;5034781;28;20281;-81
2023/05/26 14:38:19;;;;;;;;;;;;;;;;;;5035312;28;20387;-83
2023/05/26 14:40:45;;;;;;;;;;;;;;;;;;5014004;28;19917;-81
2023/05/26 14:43:11;;;;;;;;;;;;;;;;;;5035301;28;19917;-82
2023/05/26 14:45:36;;;;;;;;;;;;;;;;;;5034382;28;20270;-83
2023/05/26 14:48:02;;;;;;;;;;;;;;;;;;5034253;28;20330;-83
2023/05/26 14:50:27;;;;;;;;;;;;;;;;;;5033570;28;19916;-83
2023/05/26 14:52:52;;;;;;;;;;;;;;;;;;5032529;28;20010;-82
2023/05/26 14:55:19;;;;;;;;;;;;;;;;;;5033852;28;19924;-82
2023/05/26 14:57:44;;;;;;;;;;;;;;;;;;5024448;28;19913;-82
2023/05/26 15:00:10;;;;;;;;;;;;;;;;;;5032571;28;19921;-83
2023/05/26 15:02:35;;;;;;;;;;;;;;;;;;5032150;28;19913;-83
2023/05/26 15:05:01;;;;;;;;;;;;;;;;;;5033412;28;19924;-82
2023/05/26 15:07:26;;;;;;;;;;;;;;;;;;5037449;28;19990;-82
2023/05/26 15:09:54;;;;;;;;;;;;;;;;;;5035825;28;19913;-82
2023/05/26 15:12:21;;;;;;;;;;;;;;;;;;5020866;28;20284;-82
2023/05/26 15:14:46;;;;;;;;;;;;;;;;;;5024887;28;20409;-83
2023/05/26 15:17:12;;;;;;;;;;;;;;;;;;5020765;28;19921;-82
2023/05/26 15:19:37;;;;;;;;;;;;;;;;;;5037186;28;19967;-82
2023/05/26 15:22:06;;;;;;;;;;;;;;;;;;5037229;28;19978;-83
2023/05/26 15:24:33;;;;;;;;;;;;;;;;;;5006429;28;20432;-82
2023/05/26 15:26:58;;;;;;;;;;;;;;;;;;5032290;28;20005;-83
2023/05/26 15:29:27;;;;;;;;;;;;;;;;;;5016887;28;19936;-83
2023/05/26 15:31:55;;;;;;;;;;;;;;;;;;5016189;28;19946;-82
2023/05/26 15:34:21;;;;;;;;;;;;;;;;;;5018356;28;19921;-81
2023/05/26 15:36:48;;;;;;;;;;;;;;;;;;5019375;28;19936;-82
2023/05/26 15:39:14;;;;;;;;;;;;;;;;;;5019631;28;19914;-83
2023/05/26 15:41:39;;;;;;;;;;;;;;;;;;5019485;28;19918;-83
2023/05/26 15:44:05;;;;;;;;;;;;;;;;;;5004788;28;20013;-83
2023/05/26 15:46:30;;;;;;;;;;;;;;;;;;5037065;28;20011;-84
2023/05/26 15:48:56;;;;;;;;;;;;;;;;;;5020211;28;19917;-82
2023/05/26 15:51:21;;;;;;;;;;;;;;;;;;5002263;28;19913;-82
2023/05/26 15:53:47;;;;;;;;;;;;;;;;;;5035311;28;19940;-82
2023/05/26 15:56:13;;;;;;;;;;;;;;;;;;5035610;28;19967;-83
2023/05/26 15:58:38;;;;;;;;;;;;;;;;;;5018972;28;19917;-82
2023/05/26 16:01:04;;;;;;;;;;;;;;;;;;5029516;28;19913;-82
2023/05/26 16:03:30;;;;;;;;;;;;;;;;;;5035059;28;19975;-82
2023/05/26 16:05:55;;;;;;;;;;;;;;;;;;5036179;28;19913;-82
2023/05/26 16:08:21;;;;;;;;;;;;;;;;;;5018459;28;20063;-82
2023/05/26 16:10:49;;;;;;;;;;;;;;;;;;5036107;28;19913;-84
2023/05/26 16:13:14;;;;;;;;;;;;;;;;;;5035826;28;19913;-82
2023/05/26 16:15:40;;;;;;;;;;;;;;;;;;5036257;28;20008;-83
2023/05/26 16:18:05;;;;;;;;;;;;;;;;;;5021592;28;19917;-82
2023/05/26 16:20:31;;;;;;;;;;;;;;;;;;5016598;28;19924;-82
2023/05/26 16:22:56;;;;;;;;;;;;;;;;;;5029524;28;20306;-82
2023/05/26 16:25:28;;;;;;;;;;;;;;;;;;5026119;28;19913;-82
2023/05/26 16:27:53;;;;;;;;;;;;;;;;;;5021962;28;20301;-81
2023/05/26 16:30:19;;;;;;;;;;;;;;;;;;5030901;28;19913;-82
2023/05/26 16:32:44;;;;;;;;;;;;;;;;;;5015782;28;19913;-81
2023/05/26 16:35:13;;;;;;;;;;;;;;;;;;5016424;28;19989;-82
2023/05/26 16:37:38;;;;;;;;;;;;;;;;;;5016225;28;20410;-81
2023/05/26 16:40:04;;;;;;;;;;;;;;;;;;5015336;28;20004;-83